Howard Lake, Minnesota
Current Conditions -  °F | °C
As of 4:14 PM on Thursday 23 Oct 2014 (Local Time) from KMGG Reporting Station
Clear Clear  
Wind Chill: 68°   Ceiling: Unl
Heat Index: 68°   Visibility: 10mi
Dew Point: 50°   Wind: 3mph
Humidity: 53%   Direction: 200°SSW
Pressure: 29.94"   Gusts: NA
Location:  45.06°N, 94.07°W
Report Text: KMGG 232114Z AUTO 20003KT 10SM CLR 20/10 A2994 RMK AO2 T02010101
Loading
Personal Weather Stations






























Interactive Weather Map
Tropical Storm Tracking
New forecast layout! Learn more

10-Day Weather Forecast

Advertisements
Track Severe Weather on mobile